Погода Калисьна 2 недели

Малопольское воеводство, Польша

24 мая-06 июня
  • 24мая
    Сегодня
    +12°
    +23°
    Небольшая облачность, возможен дождь с грозой
    ВремяПогодаТемператураВлажностьДавлениеВетер, м/сВероятность осадков
    02:00Пасмурно, дождь+15°C94 %728 мм1.1 м/с31 %
    05:00Ясно и безоблачно+13°C96 %728 мм2.0 м/с18 %
    08:00Облачно с прояснениями+17°C84 %728 мм2.8 м/с14 %
    11:00Ясно и безоблачно+21°C67 %729 мм3.4 м/с15 %
    14:00Небольшая облачность, возможен дождь с грозой+22°C61 %728 мм3.8 м/с19 %
    17:00Облачно с прояснениями, ливень+21°C68 %729 мм3.8 м/с53 %
    20:00Практически безоблачно+19°C86 %728 мм1.5 м/с17 %
    23:00Ясно и безоблачно+15°C94 %728 мм1.9 м/с2 %
  • 25мая
    Суббота
    +13°
    +23°
    Небольшая облачность
    ВремяПогодаТемператураВлажностьДавлениеВетер, м/сВероятность осадков
    02:00Ясно и безоблачно+14°C92 %728 мм2.0 м/с2 %
    05:00Ясно и безоблачно+12°C93 %728 мм1.9 м/с2 %
    08:00Небольшая облачность+18°C72 %729 мм1.2 м/с2 %
    11:00Облачно с прояснениями+21°C58 %730 мм1.3 м/с13 %
    14:00Небольшая облачность+23°C54 %729 мм2.2 м/с33 %
    17:00Облачно с прояснениями+21°C70 %729 мм1.0 м/с45 %
    20:00Небольшая облачность+19°C84 %728 мм1.3 м/с13 %
    23:00Ясно и безоблачно+15°C90 %728 мм1.6 м/с2 %
  • 26мая
    Воскресенье
    +12°
    +25°
    Небольшая облачность
    ВремяПогодаТемператураВлажностьДавлениеВетер, м/сВероятность осадков
    02:00Ясно и безоблачно+14°C88 %728 мм0.1 м/с2 %
    05:00Ясно и безоблачно+13°C89 %728 мм0.4 м/с2 %
    08:00Ясно и безоблачно+18°C75 %729 мм0.6 м/с2 %
    11:00Небольшая облачность+23°C53 %730 мм1.5 м/с7 %
    14:00Небольшая облачность+23°C49 %730 мм1.8 м/с24 %
    17:00Небольшая облачность+22°C65 %730 мм5.1 м/с49 %
    20:00Практически безоблачно+19°C81 %729 мм1.3 м/с15 %
    23:00Практически безоблачно+15°C88 %729 мм2.1 м/с2 %
  • 27мая
    Понедельник
    +11°
    +26°
    Практически безоблачно
    ВремяПогодаТемператураВлажностьДавлениеВетер, м/сВероятность осадков
    02:00Ясно и безоблачно+13°C89 %729 мм2.0 м/с2 %
    05:00Ясно и безоблачно+12°C88 %729 мм2.2 м/с2 %
    08:00Ясно и безоблачно+19°C71 %730 мм1.4 м/с2 %
    11:00Ясно и безоблачно+23°C44 %730 мм2.4 м/с21 %
    14:00Практически безоблачно+23°C39 %729 мм3.6 м/с26 %
    17:00Практически безоблачно+25°C36 %728 мм3.6 м/с24 %
    20:00Ясно и безоблачно+20°C69 %728 мм1.2 м/с3 %
    23:00Ясно и безоблачно+16°C48 %728 мм4.0 м/с2 %
  • 28мая
    Вторник
    +11°
    +23°
    Небольшая облачность
    ВремяПогодаТемператураВлажностьДавлениеВетер, м/сВероятность осадков
    02:00Ясно и безоблачно+13°C58 %727 мм3.1 м/с2 %
    05:00Ясно и безоблачно+12°C61 %727 мм4.2 м/с2 %
    08:00Ясно и безоблачно+17°C57 %727 мм4.1 м/с2 %
    11:00Небольшая облачность+22°C39 %728 мм6.3 м/с2 %
    14:00Небольшая облачность+23°C37 %728 мм6.1 м/с3 %
    17:00Практически безоблачно+22°C37 %726 мм4.8 м/с6 %
    20:00Небольшая облачность+20°C53 %726 мм1.9 м/с2 %
    23:00Ясно и безоблачно+14°C72 %726 мм2.3 м/с2 %
Мы используем cookies
Соглашаюсь